Brak ostrzeżeń pogodowych   -   Brak ostrzeżeń pogodowych

Raporty Pogodowe z Lotnisk

 

EPKK - Krakow/Balice, Poland
Odległość od stacji: Zd 81km
Aktualizacja: 17/08/2018 11:00
Bezchmurnie
Bezchmurnie
 Wiatr z WsPnWs
Wiatr: WsPnWs 17 km/h
Temperatura: 23°C
Punkt Rosy: 17°C
Wilgotność Względna: 69%
Ciśnienie Względne: 1018 hPa
Podsumowanie: Bezchmurnie
Widoczność: większa niż 10 km
2018/08/17 09:00 EPKK 170900Z 07009KT 050V110 CAVOK 23/17 Q1018
EPRZ - Rzeszow/Jasionka, Poland
Odległość od stacji: Ws 81km
Aktualizacja: 17/08/2018 11:30
Przeważnie pochmurno
Przeważnie pochmurno
 Wiatr z Ws
Wiatr: Ws 17 km/h
Temperatura: 22°C
Punkt Rosy: 17°C
Wilgotność Względna: 73%
Ciśnienie Względne: 1018 hPa
Chmury: Przeważnie pochmurno
Widoczność: 10 km
Szczegóły chmur: Przeważnie pochmurno 610 m
2018/08/17 09:30 EPRZ 170930Z 09009KT 9999 BKN020 22/17 Q1018
 
EPKT - Katowice/Pyrzowice, Poland
Odległość od stacji: ZdPnZd 141km
Aktualizacja: 17/08/2018 11:30
Bezchmurnie
Bezchmurnie
 Wiatr z PdPdWs
Wiatr: PdPdWs 15 km/h
Temperatura: 26°C
Punkt Rosy: 13°C
Wilgotność Względna: 45%
Ciśnienie Względne: 1017 hPa
Podsumowanie: Bezchmurnie
Widoczność: większa niż 10 km
2018/08/17 09:30 EPKT 170930Z 15008KT 090V190 CAVOK 26/13 Q1017
EPWA - Warsaw/Okecie, Poland
Odległość od stacji: Pn 240km
Aktualizacja: 17/08/2018 11:30
Częściowe zachmurzenie
Częściowe zachmurzenie
 Wiatr z PdWs
Wiatr: PdWs 17 km/h
Temperatura: 25°C
Punkt Rosy: 16°C
Wilgotność Względna: 57%
Ciśnienie Względne: 1018 hPa
Chmury: Częściowe zachmurzenie
Widoczność: 10 km
Szczegóły chmur: Częściowe zachmurzenie 1128 m
2018/08/17 09:30 EPWA 170930Z 13009KT 090V170 9999 SCT037 25/16 Q1018 NOSIG
 
EPLL - Lodz/Lublinek, Poland
Odległość od stacji: PnPnZd 218km
Aktualizacja: 17/08/2018 11:30
Małe zachmurzenie
Małe zachmurzenie
 Wiatr z Ws
Wiatr: Ws 13 km/h
Temperatura: 25°C
Punkt Rosy: 16°C
Wilgotność Względna: 57%
Ciśnienie Względne: 1018 hPa
Chmury: Małe zachmurzenie
Widoczność: 10 km
Szczegóły chmur: Małe zachmurzenie 1158 m
2018/08/17 09:30 EPLL 170930Z 10007KT 080V180 9999 FEW038 25/16 Q1018
EPWR - Wroclaw/Strachowice, Poland
Odległość od stacji: ZdPnZd 311km
Aktualizacja: 17/08/2018 11:30
Małe zachmurzenie
Małe zachmurzenie
 Wiatr z PdWs
Wiatr: PdWs 13 km/h
Temperatura: 26°C
Punkt Rosy: 15°C
Wilgotność Względna: 51%
Ciśnienie Względne: 1016 hPa
Chmury: Małe zachmurzenie
Widoczność: 10 km
Szczegóły chmur: Małe zachmurzenie 1433 m
2018/08/17 09:30 EPWR 170930Z 13007KT 100V170 9999 FEW047 26/15 Q1016
 
EPGD - Gdansk/Rebiechowo, Poland
Odległość od stacji: PnZd 553km
Aktualizacja: 17/08/2018 11:30
Małe zachmurzenie
Małe zachmurzenie
 Wiatr z PdPdWs
Wiatr: PdPdWs 17 km/h
Temperatura: 25°C
Punkt Rosy: 14°C
Wilgotność Względna: 51%
Ciśnienie Względne: 1018 hPa
Chmury: Małe zachmurzenie
Widoczność: 10 km
Szczegóły chmur: Małe zachmurzenie 1219 m
2018/08/17 09:30 EPGD 170930Z 15009KT 9999 FEW040 25/14 Q1018
EPSC - Szczecin/Goleniow, Poland
Odległość od stacji: ZdPnZd 635km
Aktualizacja: 17/08/2018 11:30
Bezchmurnie
Bezchmurnie
 Wiatr z PdWs
Wiatr: PdWs 20 km/h
Temperatura: 27°C
Heat Index: 27°C
Punkt Rosy: 13°C
Wilgotność Względna: 42%
Ciśnienie Względne: 1015 hPa
Podsumowanie: Bezchmurnie
Widoczność: większa niż 10 km
2018/08/17 09:30 EPSC 170930Z 14011KT 110V170 CAVOK 27/13 Q1015